Aérodrome :
LOGIN :

S'inscrire | Disclaimer

   EN    FR    IT 

 










Légende :    VFR   VFR Marginal   IFR   IFR Intensif   IFR Très Intensif
Visi : 
Plafond : 
>= 8 km
>= 3000ft
5 à 8 km
1000 à 3000 ft
1500m à 5 km
500 à 1000 ft
800 à 1500m
200 à 500 ft
< 800m
< 200 ft
Symboles :   Orages  Brouillard  Fortes neiges  Fortes précipitations  Vent > 20 kt
SIGMETs :   Divers  Orages  Givrage  Turbulence  Onde Orograph.  Cendres Volcan.







- Altitude de l'aérodrome : 776 ft
- Code IATA : RMS


ETAR - Ramstein Air Base

DERNIER METAR :
  • 181256Z AUTO 16007KT 9999 FEW065 FEW190 29/14 A2994 RMK AO2 SLP134 T02850143 $

METARs EXPIRÉS :
  • 181156Z AUTO 19006KT 9999 FEW140 SCT170 BKN200 28/14 A2994 RMK AO2 SLP134 60000 T02800142 10284 20169 57009 $
  • 181056Z AUTO 18003KT 9999 FEW160 SCT200 28/14 A2995 RMK AO2 SLP137 T02760139 $

TAF TAF ETAR
Valide du 18 à 10h jusqu'au 19 à 16h UTC


181003Z 1810/1916 VRB06KT 9999 FEW050 QNH2998INS
BECMG 1817/1818 VRB06KT 9999 FEW050 BKN200 QNH2992INS
BECMG 1905/1906 16009KT 9999 FEW130 QNH2987INS
TEMPO 1912/1916 20010G20KT
BECMG 1915/1916 22009KT 9999 FEW120 QNH2980INS TX28/1818Z TN11/1902Z
Pas de NOTAMs connus pour ce terrain.



MET'MAP, la Météo Aéronautique d'un coup d'oeil ! - Copyright ORBIFLY Décembre 2007 - Disclaimer

ORBIFLY MET'MAP TEAM :

Programmation & Développement : Alexandra Zaïnal
Conception & Développement : Baudouin d'Aumeries
Co-Programmation & Développement : Marc-Olivier Méhu
Soutien technique & logistique : Manuel Goepfert

Contact : metmap@orbifly.com




SOURCES & CREDITS :

   NOAA